createdAt,value
2023-06-10T00:00:06.949Z,4.07
2023-06-10T00:02:35.248Z,3.80
2023-06-10T00:05:04.381Z,3.73
2023-06-10T00:07:34.494Z,4.07
2023-06-10T00:10:05.673Z,4.20
2023-06-10T00:12:37.988Z,4.30
2023-06-10T00:15:09.968Z,4.00
2023-06-10T00:17:41.031Z,3.40
2023-06-10T00:20:13.685Z,3.87
2023-06-10T00:22:43.072Z,3.33
2023-06-10T00:25:11.894Z,3.67
2023-06-10T00:27:40.806Z,3.70
2023-06-10T00:30:11.718Z,3.40
2023-06-10T00:32:39.599Z,3.40
2023-06-10T00:35:09.078Z,3.53
2023-06-10T00:37:37.394Z,3.53
2023-06-10T00:40:05.921Z,3.33
2023-06-10T00:42:34.221Z,3.50
2023-06-10T00:45:02.519Z,3.40
2023-06-10T00:47:33.159Z,3.50
2023-06-10T00:50:02.235Z,3.30
2023-06-10T00:52:31.839Z,3.27
2023-06-10T00:55:01.990Z,3.90
2023-06-10T00:57:31.000Z,3.43
2023-06-10T00:59:59.847Z,3.30
2023-06-10T01:02:27.853Z,3.07
2023-06-10T01:04:56.941Z,3.40
2023-06-10T01:07:28.292Z,3.37
2023-06-10T01:10:02.090Z,3.60
2023-06-10T01:12:36.375Z,3.43
2023-06-10T01:15:05.395Z,3.10
2023-06-10T01:17:33.198Z,3.33
2023-06-10T01:20:05.013Z,3.87
2023-06-10T01:22:37.863Z,3.03
2023-06-10T01:25:08.843Z,3.50
2023-06-10T01:27:41.191Z,3.30
2023-06-10T01:30:16.862Z,3.43
2023-06-10T01:32:53.516Z,3.23
2023-06-10T01:35:26.729Z,3.00
2023-06-10T01:37:58.930Z,3.23
2023-06-10T01:40:28.290Z,3.67
2023-06-10T01:42:55.964Z,3.03
2023-06-10T01:45:24.089Z,3.40
2023-06-10T01:47:51.781Z,3.10
2023-06-10T01:50:19.721Z,3.20
2023-06-10T01:52:52.104Z,3.40
2023-06-10T01:55:22.046Z,3.27
2023-06-10T01:57:49.817Z,3.07
2023-06-10T02:00:18.473Z,3.07
2023-06-10T02:02:46.468Z,3.10
2023-06-10T02:05:14.401Z,3.50
2023-06-10T02:07:42.515Z,3.27
2023-06-10T02:10:11.331Z,2.83
2023-06-10T02:12:41.487Z,3.17
2023-06-10T02:15:09.576Z,3.37
2023-06-10T02:17:37.980Z,3.00
2023-06-10T02:20:08.361Z,3.07
2023-06-10T02:22:36.219Z,3.17
2023-06-10T02:25:04.837Z,3.20
2023-06-10T02:27:32.585Z,3.63
2023-06-10T02:30:01.803Z,3.00
2023-06-10T02:32:29.592Z,3.40
2023-06-10T02:34:58.330Z,3.47
2023-06-10T02:37:26.666Z,3.33
2023-06-10T02:39:54.518Z,3.27
2023-06-10T02:42:22.446Z,2.93
2023-06-10T02:44:50.197Z,2.90
2023-06-10T02:47:19.706Z,3.03
2023-06-10T02:49:47.851Z,3.00
2023-06-10T02:52:16.717Z,2.90
2023-06-10T02:54:46.081Z,3.10
2023-06-10T02:57:15.687Z,3.30
2023-06-10T02:59:43.555Z,3.10
2023-06-10T03:02:12.381Z,2.90
2023-06-10T03:04:42.468Z,3.00
2023-06-10T03:07:12.542Z,3.00
2023-06-10T03:09:41.394Z,3.10
2023-06-10T03:12:11.528Z,2.80
2023-06-10T03:14:42.321Z,2.80
2023-06-10T03:17:10.916Z,2.67
2023-06-10T03:19:40.671Z,2.90
2023-06-10T03:22:15.545Z,3.10
2023-06-10T03:24:44.979Z,2.73
2023-06-10T03:27:13.321Z,3.10
2023-06-10T03:29:41.953Z,3.10
2023-06-10T03:32:10.316Z,2.97
2023-06-10T03:34:38.194Z,3.27
2023-06-10T03:37:06.603Z,3.30
2023-06-10T03:39:35.919Z,3.20
2023-06-10T03:42:03.730Z,2.80
2023-06-10T03:44:31.605Z,3.13
2023-06-10T03:47:01.135Z,3.20
2023-06-10T03:49:30.803Z,3.27
2023-06-10T03:51:58.501Z,2.90
2023-06-10T03:54:26.701Z,3.20
2023-06-10T03:56:56.126Z,3.03
2023-06-10T03:59:25.209Z,3.50
2023-06-10T04:01:53.477Z,3.10
2023-06-10T04:04:22.745Z,3.20
2023-06-10T04:06:50.658Z,3.30
2023-06-10T04:09:18.523Z,2.80
2023-06-10T04:11:46.577Z,3.30
2023-06-10T04:14:16.615Z,3.43
2023-06-10T04:16:45.016Z,3.10
2023-06-10T04:19:14.059Z,3.13
2023-06-10T04:21:41.663Z,2.77
2023-06-10T04:24:09.670Z,3.30
2023-06-10T04:26:38.152Z,2.80
2023-06-10T04:29:05.962Z,3.37
2023-06-10T04:31:35.176Z,3.10
2023-06-10T04:34:03.099Z,3.00
2023-06-10T04:36:32.084Z,3.27
2023-06-10T04:39:00.479Z,3.20
2023-06-10T04:41:28.535Z,3.10
2023-06-10T04:43:56.285Z,2.97
2023-06-10T04:46:24.334Z,2.70
2023-06-10T04:48:55.723Z,3.00
2023-06-10T04:51:23.854Z,2.83
2023-06-10T04:53:52.007Z,2.63
2023-06-10T04:56:21.369Z,2.97
2023-06-10T04:58:49.646Z,3.20
2023-06-10T05:01:17.599Z,3.00
2023-06-10T05:03:45.430Z,3.30
2023-06-10T05:06:14.563Z,2.97
2023-06-10T05:08:42.444Z,3.10
2023-06-10T05:11:11.301Z,2.87
2023-06-10T05:13:41.280Z,3.30
2023-06-10T05:16:10.386Z,3.20
2023-06-10T05:18:38.623Z,3.00
2023-06-10T05:21:08.649Z,3.00
2023-06-10T05:23:38.270Z,2.70
2023-06-10T05:26:06.410Z,2.63
2023-06-10T05:28:34.166Z,3.00
2023-06-10T05:31:02.037Z,3.03
2023-06-10T05:33:30.511Z,3.07
2023-06-10T05:35:58.427Z,3.10
2023-06-10T05:38:26.464Z,3.17
2023-06-10T05:40:57.977Z,2.70
2023-06-10T05:43:25.758Z,2.73
2023-06-10T05:45:53.674Z,3.23
2023-06-10T05:48:22.439Z,2.80
2023-06-10T05:50:50.183Z,3.10
2023-06-10T05:53:18.477Z,3.00
2023-06-10T05:55:47.555Z,2.70
2023-06-10T05:58:17.067Z,2.93
2023-06-10T06:00:44.945Z,2.70
2023-06-10T06:03:12.984Z,2.73
2023-06-10T06:05:40.739Z,2.80
2023-06-10T06:08:10.152Z,2.40
2023-06-10T06:10:38.003Z,3.30
2023-06-10T06:13:06.016Z,3.10
2023-06-10T06:15:36.351Z,2.63
2023-06-10T06:18:04.520Z,2.90
2023-06-10T06:20:32.253Z,2.80
2023-06-10T06:22:59.927Z,2.50
2023-06-10T06:25:28.070Z,2.93
2023-06-10T06:27:56.079Z,2.77
2023-06-10T06:30:24.487Z,2.80
2023-06-10T06:32:53.916Z,2.33
2023-06-10T06:35:21.973Z,2.60
2023-06-10T06:37:51.182Z,2.77
2023-06-10T06:40:18.891Z,2.13
2023-06-10T06:42:46.926Z,2.53
2023-06-10T06:45:15.016Z,2.40
2023-06-10T06:47:43.224Z,2.87
2023-06-10T06:50:12.729Z,2.40
2023-06-10T06:52:40.716Z,2.60
2023-06-10T06:55:09.818Z,2.60
2023-06-10T06:57:38.663Z,2.40
2023-06-10T07:00:09.181Z,2.60
2023-06-10T07:02:37.148Z,2.40
2023-06-10T07:05:05.810Z,2.43
2023-06-10T07:07:34.986Z,2.70
2023-06-10T07:10:02.869Z,2.60
2023-06-10T07:12:30.803Z,2.40
2023-06-10T07:14:58.701Z,2.50
2023-06-10T07:17:28.244Z,2.30
2023-06-10T07:19:58.535Z,2.40
2023-06-10T07:22:26.747Z,2.33
2023-06-10T07:24:57.216Z,2.47
2023-06-10T07:27:25.975Z,2.50
2023-06-10T07:29:54.926Z,2.40
2023-06-10T07:32:24.844Z,2.57
2023-06-10T07:34:53.136Z,2.50
2023-06-10T07:37:21.262Z,2.67
2023-06-10T07:39:49.080Z,2.33
2023-06-10T07:42:18.506Z,2.30
2023-06-10T07:44:47.843Z,2.40
2023-06-10T07:47:17.053Z,2.43
2023-06-10T07:49:44.880Z,2.97
2023-06-10T07:52:12.700Z,2.70
2023-06-10T07:54:41.686Z,2.23
2023-06-10T07:57:09.732Z,2.30
2023-06-10T07:59:39.213Z,2.30
2023-06-10T08:02:07.767Z,2.40
2023-06-10T08:04:36.742Z,2.30
2023-06-10T08:07:04.784Z,2.50
2023-06-10T08:09:32.544Z,2.30
2023-06-10T08:12:00.612Z,2.20
2023-06-10T08:14:28.357Z,2.43
2023-06-10T08:16:58.022Z,2.70
2023-06-10T08:19:25.946Z,2.60
2023-06-10T08:21:54.652Z,2.60
2023-06-10T08:24:22.610Z,2.70
2023-06-10T08:26:50.747Z,2.80
2023-06-10T08:29:18.781Z,2.63
2023-06-10T08:31:48.165Z,2.63
2023-06-10T08:34:19.075Z,2.90
2023-06-10T08:36:46.795Z,2.80
2023-06-10T08:39:14.678Z,3.00
2023-06-10T08:41:46.215Z,3.30
2023-06-10T08:44:20.087Z,2.93
2023-06-10T08:46:48.759Z,2.90
2023-06-10T08:49:22.746Z,2.70
2023-06-10T08:51:52.977Z,2.83
2023-06-10T08:54:24.871Z,2.90
2023-06-10T08:56:53.478Z,2.60
2023-06-10T08:59:22.567Z,2.77
2023-06-10T09:01:50.694Z,2.90
2023-06-10T09:04:21.877Z,2.73
2023-06-10T09:06:51.537Z,2.60
2023-06-10T09:09:20.877Z,2.87
2023-06-10T09:11:48.825Z,3.00
2023-06-10T09:14:17.898Z,2.70
2023-06-10T09:16:49.388Z,2.80
2023-06-10T09:19:22.412Z,3.10
2023-06-10T09:21:50.256Z,2.88
2023-06-10T09:24:19.138Z,2.93
2023-06-10T09:26:47.195Z,3.03
2023-06-10T09:29:15.225Z,2.70
2023-06-10T09:31:43.375Z,2.70
2023-06-10T09:34:13.441Z,2.75
2023-06-10T09:36:43.451Z,3.15
2023-06-10T09:39:17.340Z,2.88
2023-06-10T09:41:46.436Z,3.30
2023-06-10T09:44:16.321Z,2.72
2023-06-10T09:46:44.440Z,3.20
2023-06-10T09:49:14.537Z,3.00
2023-06-10T09:51:53.788Z,2.90
2023-06-10T09:54:22.062Z,2.80
2023-06-10T09:56:50.412Z,3.10
2023-06-10T09:59:18.273Z,2.67
2023-06-10T10:01:47.938Z,2.78
2023-06-10T10:04:25.708Z,2.80
2023-06-10T10:06:55.832Z,2.88
2023-06-10T10:09:23.595Z,2.97
2023-06-10T10:11:52.933Z,3.00
2023-06-10T10:14:22.409Z,2.80
2023-06-10T10:16:51.716Z,3.20
2023-06-10T10:19:24.959Z,3.13
2023-06-10T10:21:58.086Z,2.78
2023-06-10T10:24:33.644Z,2.78
2023-06-10T10:27:07.042Z,3.05
2023-06-10T10:29:41.002Z,3.08
2023-06-10T10:32:11.201Z,3.22
2023-06-10T10:34:46.363Z,3.00
2023-06-10T10:37:15.798Z,3.45
2023-06-10T10:39:44.211Z,3.05
2023-06-10T10:42:12.637Z,2.80
2023-06-10T10:44:42.026Z,3.17
2023-06-10T10:47:11.124Z,3.50
2023-06-10T10:49:40.493Z,3.08
2023-06-10T10:52:14.159Z,2.95
2023-06-10T10:54:47.688Z,3.08
2023-06-10T10:57:19.188Z,3.35
2023-06-10T10:59:53.359Z,2.97
2023-06-10T11:02:35.190Z,2.95
2023-06-10T11:05:03.929Z,2.90
2023-06-10T11:07:32.683Z,3.40
2023-06-10T11:10:04.790Z,3.15
2023-06-10T11:12:54.226Z,3.17
2023-06-10T11:15:24.019Z,3.10
2023-06-10T11:18:11.634Z,3.35
2023-06-10T11:21:04.664Z,3.53
2023-06-10T11:23:43.645Z,3.25
2023-06-10T11:26:22.173Z,3.35
2023-06-10T11:29:21.510Z,3.35
2023-06-10T11:31:53.200Z,2.88
2023-06-10T11:34:28.618Z,3.40
2023-06-10T11:36:58.679Z,3.70
2023-06-10T11:39:28.113Z,3.17
2023-06-10T11:41:57.777Z,3.42
2023-06-10T11:44:30.454Z,3.03
2023-06-10T11:46:59.135Z,3.63
2023-06-10T11:49:28.040Z,3.15
2023-06-10T11:51:55.978Z,3.20
2023-06-10T11:54:24.023Z,3.20
2023-06-10T11:56:52.405Z,3.50
2023-06-10T11:59:29.873Z,3.15
2023-06-10T12:01:58.332Z,2.90
2023-06-10T12:04:27.328Z,3.10
2023-06-10T12:06:56.286Z,3.10
2023-06-10T12:09:27.510Z,3.20
2023-06-10T12:12:00.490Z,3.45
2023-06-10T12:14:56.957Z,3.50
2023-06-10T12:17:38.416Z,3.05
2023-06-10T12:20:08.431Z,3.22
2023-06-10T12:22:40.698Z,3.35
2023-06-10T12:25:10.690Z,3.83
2023-06-10T12:27:42.081Z,3.35
2023-06-10T12:30:13.162Z,3.47
2023-06-10T12:32:43.113Z,3.30
2023-06-10T12:35:13.561Z,3.45
2023-06-10T12:37:44.186Z,3.17
2023-06-10T12:40:13.513Z,3.38
2023-06-10T12:42:43.115Z,3.28
2023-06-10T12:45:14.339Z,3.00
2023-06-10T12:47:43.300Z,3.22
2023-06-10T12:50:13.311Z,3.33
2023-06-10T12:52:42.342Z,2.85
2023-06-10T12:55:11.130Z,3.47
2023-06-10T12:57:40.632Z,3.40
2023-06-10T13:00:10.028Z,3.40
2023-06-10T13:02:40.092Z,3.40
2023-06-10T13:05:08.557Z,3.22
2023-06-10T13:07:36.618Z,3.30
2023-06-10T13:10:06.312Z,3.10
2023-06-10T13:12:46.282Z,3.22
2023-06-10T13:15:17.035Z,3.50
2023-06-10T13:17:50.569Z,3.53
2023-06-10T13:20:19.567Z,3.25
2023-06-10T13:22:48.757Z,3.78
2023-06-10T13:25:16.973Z,3.33
2023-06-10T13:27:45.199Z,4.00
2023-06-10T13:30:13.909Z,4.05
2023-06-10T13:32:42.248Z,3.75
2023-06-10T13:35:12.161Z,4.10
2023-06-10T13:37:40.504Z,3.58
2023-06-10T13:40:11.037Z,3.90
2023-06-10T13:42:39.563Z,3.83
2023-06-10T13:45:10.998Z,3.97
2023-06-10T13:47:39.156Z,4.60
2023-06-10T13:50:09.652Z,4.00
2023-06-10T13:52:38.892Z,4.10
2023-06-10T13:55:08.707Z,4.47
2023-06-10T13:57:38.037Z,4.25
2023-06-10T14:00:06.856Z,4.50
2023-06-10T14:02:34.622Z,4.45
2023-06-10T14:05:03.036Z,4.32
2023-06-10T14:07:31.302Z,4.55
2023-06-10T14:10:00.944Z,4.97
2023-06-10T14:12:28.630Z,5.47
2023-06-10T14:14:56.416Z,5.05
2023-06-10T14:17:25.546Z,5.15
2023-06-10T14:19:53.568Z,5.40
2023-06-10T14:22:21.396Z,5.40
2023-06-10T14:24:49.557Z,5.47
2023-06-10T14:27:18.766Z,5.78
2023-06-10T14:29:46.739Z,5.50
2023-06-10T14:32:15.080Z,6.32
2023-06-10T14:34:45.427Z,6.00
2023-06-10T14:37:14.450Z,5.82
2023-06-10T14:39:42.114Z,5.90
2023-06-10T14:42:10.097Z,6.15
2023-06-10T14:44:39.281Z,5.50
2023-06-10T14:47:07.837Z,5.90
2023-06-10T14:49:35.872Z,6.07
2023-06-10T14:52:03.559Z,5.93
2023-06-10T14:54:31.351Z,6.38
2023-06-10T14:56:59.309Z,6.22
2023-06-10T14:59:27.270Z,6.05
2023-06-10T15:01:56.630Z,6.20
2023-06-10T15:04:25.016Z,5.93
2023-06-10T15:06:53.317Z,5.90
2023-06-10T15:09:21.693Z,7.25
2023-06-10T15:11:49.589Z,5.88
2023-06-10T15:14:18.450Z,6.40
2023-06-10T15:16:46.204Z,5.80
2023-06-10T15:19:15.613Z,6.13
2023-06-10T15:21:43.363Z,6.45
2023-06-10T15:24:11.779Z,6.10
2023-06-10T15:26:39.971Z,6.03
2023-06-10T15:29:08.633Z,6.20
2023-06-10T15:31:36.817Z,6.88
2023-06-10T15:34:05.409Z,5.75
2023-06-10T15:36:34.872Z,5.97
2023-06-10T15:39:04.584Z,5.95
2023-06-10T15:41:32.470Z,6.43
2023-06-10T15:44:01.069Z,6.07
2023-06-10T15:46:30.441Z,5.93
2023-06-10T15:48:59.742Z,6.15
2023-06-10T15:51:28.003Z,6.68
2023-06-10T15:53:57.823Z,5.57
2023-06-10T15:56:26.963Z,5.65
2023-06-10T15:58:55.770Z,6.13
2023-06-10T16:01:24.096Z,6.57
2023-06-10T16:03:52.921Z,6.35
2023-06-10T16:06:21.125Z,6.25
2023-06-10T16:08:49.160Z,6.22
2023-06-10T16:11:18.769Z,6.50
2023-06-10T16:13:46.594Z,6.15
2023-06-10T16:16:14.453Z,6.22
2023-06-10T16:18:42.516Z,6.80
2023-06-10T16:21:10.319Z,7.85
2023-06-10T16:23:40.153Z,7.18
2023-06-10T16:26:08.080Z,7.65
2023-06-10T16:28:37.445Z,9.38
2023-06-10T16:31:05.236Z,9.60
2023-06-10T16:33:33.347Z,9.40
2023-06-10T16:36:01.129Z,9.00
2023-06-10T16:38:28.970Z,8.70
2023-06-10T16:40:58.544Z,8.45
2023-06-10T16:43:27.798Z,7.85
2023-06-10T16:45:58.274Z,6.57
2023-06-10T16:48:26.299Z,8.63
2023-06-10T16:50:55.458Z,6.95
2023-06-10T16:53:23.437Z,6.45
2023-06-10T16:55:51.454Z,6.93
2023-06-10T16:58:19.204Z,7.00
2023-06-10T17:00:47.244Z,6.80
2023-06-10T17:03:16.736Z,6.57
2023-06-10T17:05:44.830Z,6.15
2023-06-10T17:08:12.853Z,5.88
2023-06-10T17:10:41.171Z,5.80
2023-06-10T17:13:09.063Z,5.50
2023-06-10T17:15:37.064Z,5.07
2023-06-10T17:18:04.983Z,5.45
2023-06-10T17:20:35.418Z,5.65
2023-06-10T17:23:04.537Z,5.50
2023-06-10T17:25:33.075Z,5.35
2023-06-10T17:28:01.189Z,5.10
2023-06-10T17:30:29.337Z,5.35
2023-06-10T17:32:58.210Z,5.05
2023-06-10T17:35:26.579Z,5.10
2023-06-10T17:37:56.187Z,4.88
2023-06-10T17:40:24.377Z,5.10
2023-06-10T17:42:53.929Z,5.60
2023-06-10T17:45:22.118Z,4.95
2023-06-10T17:47:50.346Z,4.68
2023-06-10T17:50:19.973Z,4.50
2023-06-10T17:52:47.997Z,5.13
2023-06-10T17:55:18.362Z,5.00
2023-06-10T17:57:46.618Z,4.85
2023-06-10T18:00:15.139Z,4.65
2023-06-10T18:02:43.371Z,4.70
2023-06-10T18:05:12.170Z,4.43
2023-06-10T18:07:40.528Z,6.25
2023-06-10T18:10:09.350Z,4.55
2023-06-10T18:12:38.728Z,4.95
2023-06-10T18:15:08.079Z,4.68
2023-06-10T18:17:36.981Z,4.05
2023-06-10T18:20:05.483Z,4.30
2023-06-10T18:22:33.411Z,4.22
2023-06-10T18:25:06.017Z,3.90
2023-06-10T18:27:34.164Z,4.35
2023-06-10T18:30:03.805Z,3.83
2023-06-10T18:32:31.791Z,4.40
2023-06-10T18:34:59.672Z,4.13
2023-06-10T18:37:27.837Z,4.53
2023-06-10T18:39:56.251Z,3.55
2023-06-10T18:42:23.963Z,4.15
2023-06-10T18:44:51.803Z,3.60
2023-06-10T18:47:21.382Z,3.80
2023-06-10T18:49:49.313Z,4.07
2023-06-10T18:52:17.088Z,3.85
2023-06-10T18:54:44.906Z,3.80
2023-06-10T18:57:14.446Z,3.40
2023-06-10T18:59:44.038Z,3.33
2023-06-10T19:02:12.683Z,4.00
2023-06-10T19:04:42.216Z,3.90
2023-06-10T19:07:10.475Z,3.45
2023-06-10T19:09:39.681Z,3.70
2023-06-10T19:12:09.343Z,3.75
2023-06-10T19:14:40.088Z,3.50
2023-06-10T19:17:09.938Z,3.40
2023-06-10T19:19:37.805Z,3.47
2023-06-10T19:22:07.805Z,3.08
2023-06-10T19:24:35.830Z,3.75
2023-06-10T19:27:04.272Z,3.38
2023-06-10T19:29:31.989Z,3.00
2023-06-10T19:31:59.877Z,3.35
2023-06-10T19:34:29.202Z,3.10
2023-06-10T19:36:57.105Z,3.35
2023-06-10T19:39:27.653Z,3.33
2023-06-10T19:41:56.851Z,3.50
2023-06-10T19:44:25.809Z,3.75
2023-06-10T19:46:54.678Z,3.15
2023-06-10T19:49:24.294Z,3.78
2023-06-10T19:51:53.168Z,3.15
2023-06-10T19:54:21.577Z,3.40
2023-06-10T19:56:55.324Z,3.40
2023-06-10T19:59:24.229Z,3.33
2023-06-10T20:01:53.747Z,3.05
2023-06-10T20:04:23.322Z,3.22
2023-06-10T20:06:51.410Z,3.40
2023-06-10T20:09:19.246Z,3.30
2023-06-10T20:11:47.007Z,3.00
2023-06-10T20:14:16.849Z,3.35
2023-06-10T20:16:45.463Z,3.30
2023-06-10T20:19:13.505Z,3.40
2023-06-10T20:21:41.259Z,3.67
2023-06-10T20:24:10.080Z,3.28
2023-06-10T20:26:37.973Z,3.20
2023-06-10T20:29:06.317Z,3.45
2023-06-10T20:31:35.610Z,4.30
2023-06-10T20:34:03.329Z,3.58
2023-06-10T20:36:32.830Z,3.25
2023-06-10T20:39:01.244Z,3.35
2023-06-10T20:41:30.225Z,3.15
2023-06-10T20:43:59.414Z,3.30
2023-06-10T20:46:27.466Z,3.50
2023-06-10T20:48:57.005Z,3.10
2023-06-10T20:51:24.797Z,3.13
2023-06-10T20:53:52.787Z,2.90
2023-06-10T20:56:20.724Z,3.20
2023-06-10T20:58:48.452Z,2.90
2023-06-10T21:01:17.507Z,3.40
2023-06-10T21:03:45.300Z,3.30
2023-06-10T21:06:16.428Z,3.10
2023-06-10T21:08:44.217Z,2.72
2023-06-10T21:11:12.003Z,3.00
2023-06-10T21:13:40.210Z,3.27
2023-06-10T21:16:08.265Z,3.20
2023-06-10T21:18:37.350Z,3.23
2023-06-10T21:21:05.235Z,3.27
2023-06-10T21:23:36.289Z,3.43
2023-06-10T21:26:06.354Z,3.60
2023-06-10T21:28:35.331Z,3.00
2023-06-10T21:31:05.699Z,3.93
2023-06-10T21:33:33.528Z,3.33
2023-06-10T21:36:01.433Z,3.50
2023-06-10T21:38:29.355Z,3.00
2023-06-10T21:40:58.399Z,3.10
2023-06-10T21:43:27.096Z,3.63
2023-06-10T21:45:57.613Z,3.37
2023-06-10T21:48:25.458Z,3.20
2023-06-10T21:50:53.314Z,3.23
2023-06-10T21:53:21.076Z,3.10
2023-06-10T21:55:48.803Z,3.60
2023-06-10T21:58:18.267Z,3.53
2023-06-10T22:00:47.067Z,3.30
2023-06-10T22:03:16.182Z,3.27
2023-06-10T22:05:44.714Z,3.37
2023-06-10T22:08:13.718Z,3.20
2023-06-10T22:10:42.812Z,3.47
2023-06-10T22:13:11.261Z,3.00
2023-06-10T22:15:40.755Z,3.20
2023-06-10T22:18:08.848Z,3.40
2023-06-10T22:20:36.716Z,3.10
2023-06-10T22:23:04.774Z,2.90
2023-06-10T22:25:32.550Z,3.20
2023-06-10T22:28:00.868Z,3.23
2023-06-10T22:30:28.634Z,3.47
2023-06-10T22:32:58.500Z,3.23
2023-06-10T22:35:27.908Z,3.20
2023-06-10T22:37:55.925Z,3.20
2023-06-10T22:40:23.773Z,3.33
2023-06-10T22:42:51.782Z,3.40
2023-06-10T22:45:19.721Z,3.23
2023-06-10T22:47:47.750Z,3.13
2023-06-10T22:50:17.521Z,3.30
2023-06-10T22:52:45.602Z,3.20
2023-06-10T22:55:13.904Z,3.20
2023-06-10T22:57:41.842Z,3.10
2023-06-10T23:00:11.089Z,3.60
2023-06-10T23:02:39.447Z,3.30
2023-06-10T23:05:08.340Z,3.63
2023-06-10T23:07:37.974Z,3.37
2023-06-10T23:10:06.845Z,3.37
2023-06-10T23:12:34.879Z,3.13
2023-06-10T23:15:04.608Z,3.50
2023-06-10T23:17:32.495Z,3.33
2023-06-10T23:20:02.927Z,3.37
2023-06-10T23:22:32.507Z,3.43
2023-06-10T23:25:03.736Z,3.30
2023-06-10T23:27:31.839Z,3.33
2023-06-10T23:30:00.781Z,3.13
2023-06-10T23:32:28.979Z,3.53
2023-06-10T23:34:56.891Z,3.80
2023-06-10T23:37:24.775Z,3.60
2023-06-10T23:39:53.268Z,3.90
2023-06-10T23:42:24.496Z,4.20
2023-06-10T23:44:52.595Z,4.40
2023-06-10T23:47:22.430Z,3.90
2023-06-10T23:49:50.379Z,4.00
2023-06-10T23:52:19.135Z,4.27
2023-06-10T23:54:47.442Z,4.40
2023-06-10T23:57:15.175Z,3.97
2023-06-10T23:59:44.347Z,3.90
